| time (UTC) | temp C | wind direction | speed KPH | gust KPH | rain 1hr cm | rain 24hr cm | rain mn cm | humidity % | barometer mb |
| 20260509224540 | 19 | 223 | 14.5 | 22.5 | 0.00 | 0.89 | 0.89 | 56 | 1007.3 |
| 20260509223040 | 19 | 190 | 12.9 | 27.4 | 0.00 | 0.89 | 0.89 | 57 | 1007.4 |
| 20260509221540 | 20 | 227 | 12.9 | 32.2 | 0.00 | 0.89 | 0.89 | 58 | 1007.7 |
| 20260509220050 | 19 | 240 | 12.9 | 29.0 | 0.00 | 0.89 | 0.89 | 59 | 1007.7 |
| 20260509214539 | 20 | 213 | 11.3 | 24.1 | 0.00 | 0.89 | 0.89 | 58 | 1007.7 |
| 20260509213053 | 20 | 220 | 12.9 | 29.0 | 0.00 | 0.89 | 0.89 | 59 | 1007.8 |
| 20260509211539 | 20 | 248 | 12.9 | 30.6 | 0.00 | 0.89 | 0.89 | 61 | 1007.9 |
| 20260509210056 | 19 | 231 | 14.5 | 30.6 | 0.00 | 0.89 | 0.89 | 61 | 1008.0 |
| 20260509204535 | 18 | 228 | 12.9 | 24.1 | 0.00 | 0.89 | 0.89 | 62 | 1008.1 |
| 20260509203036 | 19 | 219 | 12.9 | 27.4 | 0.00 | 0.89 | 0.89 | 64 | 1008.3 |
| 20260509201539 | 18 | 227 | 11.3 | 20.9 | 0.00 | 0.89 | 0.89 | 67 | 1008.5 |
| 20260509200045 | 18 | 213 | 11.3 | 27.4 | 0.00 | 0.89 | 0.89 | 69 | 1008.4 |
| 20260509194552 | 18 | 209 | 9.7 | 27.4 | 0.00 | 0.89 | 0.89 | 69 | 1008.7 |
| 20260509193040 | 18 | 232 | 14.5 | 30.6 | 0.00 | 0.89 | 0.89 | 68 | 1009.1 |
| 20260509191538 | 17 | 225 | 16.1 | 27.4 | 0.00 | 0.89 | 0.89 | 70 | 1009.1 |
| 20260509190037 | 17 | 249 | 11.3 | 19.3 | 0.00 | 0.89 | 0.89 | 74 | 1009.3 |
| 20260509184539 | 16 | 215 | 9.7 | 19.3 | 0.00 | 0.89 | 0.89 | 76 | 1009.5 |
| 20260509183039 | 15 | 214 | 11.3 | 22.5 | 0.00 | 0.89 | 0.89 | 77 | 1009.7 |
| 20260509181538 | 15 | 202 | 6.4 | 17.7 | 0.00 | 0.89 | 0.89 | 84 | 1009.6 |
| 20260509180049 | 14 | 266 | 6.4 | 17.7 | 0.00 | 0.89 | 0.89 | 85 | 1009.7 |
| 20260509174537 | 13 | 217 | 6.4 | 19.3 | 0.00 | 0.89 | 0.89 | 86 | 1009.6 |
| 20260509173053 | 13 | 211 | 11.3 | 17.7 | 0.00 | 0.89 | 0.89 | 85 | 1009.4 |
| 20260509171541 | 13 | 281 | 6.4 | 17.7 | 0.03 | 0.89 | 0.89 | 87 | 1009.3 |
| 20260509170038 | 13 | 244 | 6.4 | 12.9 | 0.03 | 0.89 | 0.89 | 89 | 1009.3 |
| 20260509164534 | 12 | 229 | 8.0 | 14.5 | 0.03 | 0.89 | 0.89 | 90 | 1009.2 |
| 20260509163040 | 12 | 214 | 8.0 | 25.7 | 0.05 | 0.89 | 0.89 | 90 | 1009.1 |
| 20260509161552 | 12 | 234 | 12.9 | 24.1 | 0.05 | 0.86 | 0.86 | 90 | 1009.0 |
| 20260509160040 | 11 | 201 | 11.3 | 25.7 | 0.08 | 0.86 | 0.86 | 91 | 1008.9 |
| 20260509154545 | 11 | 186 | 11.3 | 25.7 | 0.08 | 0.84 | 0.84 | 92 | 1009.0 |
| 20260509153056 | 11 | 221 | 11.3 | 29.0 | 0.13 | 0.84 | 0.84 | 92 | 1009.2 |
| 20260509151540 | 11 | 209 | 6.4 | 17.7 | 0.13 | 0.81 | 0.81 | 93 | 1009.3 |
| 20260509150042 | 11 | 235 | 8.0 | 16.1 | 0.15 | 0.79 | 0.79 | 93 | 1009.4 |
| 20260509144545 | 11 | 210 | 8.0 | 25.7 | 0.18 | 0.76 | 0.76 | 93 | 1009.3 |
| 20260509143037 | 11 | 216 | 9.7 | 24.1 | 0.18 | 0.71 | 0.71 | 93 | 1009.5 |
| 20260509141542 | 11 | 220 | 11.3 | 22.5 | 0.18 | 0.69 | 0.69 | 92 | 1009.7 |
| 20260509140052 | 11 | 220 | 9.7 | 19.3 | 0.13 | 0.61 | 0.61 | 92 | 1009.6 |
| 20260509134539 | 11 | 211 | 9.7 | 22.5 | 0.15 | 0.58 | 0.58 | 92 | 1009.8 |
| 20260509133039 | 11 | 251 | 11.3 | 25.7 | 0.13 | 0.53 | 0.53 | 92 | 1009.7 |
| 20260509131538 | 11 | 222 | 14.5 | 25.7 | 0.13 | 0.51 | 0.51 | 91 | 1010.0 |
| 20260509130038 | 11 | 211 | 9.7 | 22.5 | 0.13 | 0.48 | 0.48 | 91 | 1009.9 |
| 20260509124533 | 11 | 223 | 11.3 | 24.1 | 0.10 | 0.43 | 0.43 | 91 | 1009.8 |
| 20260509123033 | 11 | 207 | 12.9 | 22.5 | 0.08 | 0.41 | 0.41 | 92 | 1010.1 |
| 20260509121539 | 11 | 222 | 8.0 | 17.7 | 0.10 | 0.38 | 0.38 | 92 | 1009.9 |
| 20260509120039 | 11 | 215 | 4.8 | 14.5 | 0.10 | 0.36 | 0.36 | 91 | 1009.9 |
| 20260509114538 | 11 | 215 | 6.4 | 14.5 | 0.15 | 0.33 | 0.33 | 91 | 1010.1 |
| 20260509113035 | 10 | 240 | 8.0 | 16.1 | 0.18 | 0.33 | 0.33 | 91 | 1009.9 |
| 20260509111539 | 10 | 206 | 8.0 | 22.5 | 0.15 | 0.28 | 0.28 | 90 | 1009.8 |
| 20260509110039 | 10 | 186 | 9.7 | 27.4 | 0.13 | 0.25 | 0.25 | 90 | 1009.8 |
| 20260509104539 | 10 | 220 | 11.3 | 20.9 | 0.10 | 0.18 | 0.18 | 90 | 1009.8 |
| 20260509103046 | 10 | 206 | 8.0 | 17.7 | 0.08 | 0.15 | 0.15 | 89 | 1009.7 |
| 20260509101540 | 11 | 236 | 9.7 | 22.5 | 0.10 | 0.13 | 0.13 | 89 | 1009.7 |
| 20260509100038 | 11 | 207 | 11.3 | 20.9 | 0.10 | 0.13 | 0.13 | 88 | 1009.9 |
| 20260509094536 | 11 | 187 | 11.3 | 25.7 | 0.05 | 0.08 | 0.08 | 87 | 1010.1 |
| 20260509093043 | 11 | 222 | 9.7 | 19.3 | 0.08 | 0.08 | 0.08 | 86 | 1010.2 |
| 20260509091548 | 10 | 252 | 11.3 | 17.7 | 0.03 | 0.03 | 0.03 | 87 | 1010.3 |
| 20260509090041 | 10 | 204 | 3.2 | 8.0 | 0.03 | 0.03 | 0.03 | 89 | 1010.1 |
| 20260509084536 | 10 | 219 | 1.6 | 6.4 | 0.03 | 0.03 | 0.03 | 89 | 1009.9 |
| 20260509083042 | 10 | 209 | 0.0 | 3.2 | 0.00 | 0.00 | 0.00 | 89 | 1009.7 |
| 20260509081540 | 10 | 0 | 0.0 | 3.2 | 0.00 | 0.00 | 0.00 | 87 | 1009.3 |
| 20260509080046 | 10 | 0 | 0.0 | 0.0 | 0.00 | 0.00 | 0.00 | 86 | 1009.2 |
| 20260509074550 | 10 | 0 | 0.0 | 4.8 | 0.00 | 0.00 | 0.00 | 85 | 1009.0 |
| 20260509073058 | 10 | 34 | 1.6 | 9.7 | 0.00 | 0.00 | 0.00 | 85 | 1009.1 |
| 20260509071548 | 10 | 352 | 0.0 | 3.2 | 0.00 | 0.00 | 0.00 | 85 | 1009.1 |
| 20260509070044 | 10 | 352 | 1.6 | 6.4 | 0.00 | 0.00 | 0.00 | 85 | 1008.9 |
| 20260509064540 | 11 | 0 | 0.0 | 4.8 | 0.00 | 0.00 | 0.00 | 83 | 1009.0 |
| 20260509063052 | 11 | 134 | 1.6 | 11.3 | 0.00 | 0.00 | 0.00 | 81 | 1009.0 |
| 20260509061537 | 11 | 101 | 3.2 | 11.3 | 0.00 | 0.00 | 0.00 | 81 | 1009.6 |
| 20260509060101 | 10 | 205 | 1.6 | 8.0 | 0.00 | 0.00 | 0.00 | 83 | 1010.3 |
| 20260509054543 | 10 | 0 | 0.0 | 6.4 | 0.00 | 0.00 | 0.00 | 84 | 1010.3 |
| 20260509053052 | 10 | 0 | 1.6 | 6.4 | 0.00 | 0.00 | 0.00 | 86 | 1010.5 |
| 20260509051538 | 10 | 135 | 1.6 | 9.7 | 0.00 | 0.00 | 0.00 | 87 | 1010.7 |
| 20260509050035 | 10 | 146 | 3.2 | 9.7 | 0.00 | 0.00 | 0.00 | 89 | 1010.9 |
| 20260509044542 | 10 | 0 | 0.0 | 0.0 | 0.00 | 0.00 | 0.00 | 90 | 1011.0 |
| 20260509043051 | 10 | 0 | 0.0 | 3.2 | 0.00 | 0.00 | 0.00 | 88 | 1011.2 |
| 20260509041541 | 10 | 86 | 1.6 | 11.3 | 0.00 | 0.00 | 0.00 | 88 | 1011.2 |
| 20260509040058 | 10 | 75 | 4.8 | 11.3 | 0.00 | 0.00 | 0.00 | 88 | 1011.4 |
| 20260509034538 | 10 | 90 | 4.8 | 14.5 | 0.00 | 0.00 | 0.00 | 87 | 1011.9 |
| 20260509033047 | 11 | 69 | 3.2 | 9.7 | 0.00 | 0.00 | 0.00 | 86 | 1012.0 |
| 20260509031544 | 11 | 79 | 3.2 | 8.0 | 0.00 | 0.00 | 0.00 | 84 | 1012.2 |
| 20260509030039 | 11 | 75 | 4.8 | 16.1 | 0.00 | 0.00 | 0.00 | 83 | 1012.0 |
| 20260509024547 | 11 | 25 | 6.4 | 12.9 | 0.00 | 0.00 | 0.00 | 81 | 1012.1 |
| 20260509023038 | 11 | 59 | 1.6 | 8.0 | 0.00 | 0.00 | 0.00 | 78 | 1012.1 |
| 20260509021538 | 11 | 17 | 3.2 | 8.0 | 0.00 | 0.00 | 0.00 | 77 | 1011.8 |
| 20260509020035 | 11 | 352 | 1.6 | 6.4 | 0.00 | 0.00 | 0.00 | 79 | 1011.5 |
| 20260509014542 | 11 | 0 | 0.0 | 4.8 | 0.00 | 0.00 | 0.00 | 78 | 1011.2 |
| 20260509013040 | 11 | 0 | 0.0 | 3.2 | 0.00 | 0.00 | 0.00 | 77 | 1010.8 |
| 20260509011544 | 11 | 0 | 0.0 | 3.2 | 0.00 | 0.00 | 0.00 | 74 | 1010.8 |
| 20260509010040 | 12 | 84 | 0.0 | 4.8 | 0.00 | 0.00 | 0.00 | 74 | 1010.8 |
| 20260509004537 | 12 | 66 | 1.6 | 6.4 | 0.00 | 0.00 | 0.00 | 73 | 1010.8 |
| 20260509003037 | 12 | 74 | 1.6 | 4.8 | 0.00 | 0.00 | 0.00 | 73 | 1010.9 |
| 20260509001539 | 12 | 59 | 3.2 | 6.4 | 0.00 | 0.00 | 0.00 | 72 | 1010.9 |
| 20260509000040 | 12 | 51 | 1.6 | 4.8 | 0.00 | 0.00 | 0.00 | 71 | 1011.0 |
| 20260508234538 | 13 | 59 | 1.6 | 4.8 | 0.00 | 0.00 | 0.00 | 70 | 1010.8 |
| 20260508233039 | 13 | 32 | 0.0 | 3.2 | 0.00 | 0.00 | 0.00 | 70 | 1010.9 |
| 20260508231537 | 13 | 0 | 1.6 | 6.4 | 0.00 | 0.00 | 0.00 | 68 | 1011.0 |
| 20260508230036 | 13 | 51 | 0.0 | 3.2 | 0.00 | 0.00 | 0.00 | 68 | 1010.9 |